Mount Pleasant, SC (29464)

2:15 PM EDT on March 28, 2015 (GMT -0400)
Point Pleasant | | Change Station
CLOSE
Current Station
Personal Weather Station
Location: Mount Pleasant, SC
Elevation: 16 ft
Nearby Weather Stations

Elev 16 ft 32.82 °N, 79.86 °W | Updated 2 minutes ago

Partly Cloudy
Partly Cloudy
53.8 °F
Feels Like 53.8 °F
N
6.0
Wind Variable Wind from West
Gusts 18.0 mph

Today
High -- | Low -- °F
--% Chance of Precip.
Yesterday
High -- | Low -- °F
Precip. -- in
7:12 AM 7:36 PM
Waxing Gibbous, 64% visible
Pressure 30.07 in
Visibility 10.0 miles
Clouds Few 3900 ft
Scattered Clouds 6000 ft
Mostly Cloudy 11000 ft
Dew Point 35 °F
Humidity 50%
Rainfall 0.00 in
Snow Depth Not available.
UV 6 out of 12
Pollen 9.60 out of 12
Air Quality Not available.
Flu Activity Not available.
METAR KJZI 281755Z AUTO 27011G15KT 10SM FEW039 SCT060 BKN110 13/M01 A3007 RMK A02 P000

More Conditions Fewer Conditions

Pressure 30.07 in
Visibility 10.0 miles
Clouds Few 3900 ft
Scattered Clouds 6000 ft
Mostly Cloudy 11000 ft
Dew Point 35 °F
Humidity 50%
Rainfall 0.00 in
Snow Depth Not available.
UV 6 out of 12
Pollen 9.60 out of 12
Air Quality Not available.
Flu Activity Not available.
METAR KJZI 281755Z AUTO 27011G15KT 10SM FEW039 SCT060 BKN110 13/M01 A3007 RMK A02 P000

More Conditions Fewer Conditions

10-Day Weather Forecast

Almanac

Astronomy

Mar. 28, 2015 Rise Set
Actual Time
Civil Twilight
Nautical Twilight
Astronomical Twilight
Moon
Length of Visible Light
Length of Day
Tomorrow will be .
, % of the Moon is Illuminated

Today's Extremes

State Highs State Lows

Community

WunderPhotos

Upload Photos

1,809,050 photos uploaded!

WunderBlogs® & News

Nearby

Air Quality

  Air Quality AQ Index Pollutant
Not available.

Snow Depth

Station Depth Elevation

Earthquake Activity

City Distance Mag. Time & Date
Minimum magnitude displayed is 2.5.

Coastal Water Temperatures

Place Temperature

Stations

Nearby Weather Stations

Station Location Temp. Windchill Dew Point Humidity Wind Precip. Elev Updated Type